sensor_id;sensor_type;location;lat;lon;timestamp;pressure;altitude;pressure_sealevel;temperature;humidity
56142;BME280;42018;48.588;10.836;2022-10-16T00:01:13;96823.28;;;15.45;79.20
56142;BME280;42018;48.588;10.836;2022-10-16T00:04:00;96819.09;;;15.25;80.45
56142;BME280;42018;48.588;10.836;2022-10-16T00:06:46;96815.63;;;15.25;80.53
56142;BME280;42018;48.588;10.836;2022-10-16T00:09:31;96816.09;;;15.13;81.27
56142;BME280;42018;48.588;10.836;2022-10-16T00:12:17;96818.28;;;15.25;80.73
56142;BME280;42018;48.588;10.836;2022-10-16T00:15:02;96823.16;;;15.23;80.48
56142;BME280;42018;48.588;10.836;2022-10-16T00:17:48;96832.44;;;15.25;80.74
56142;BME280;42018;48.588;10.836;2022-10-16T00:20:34;96821.34;;;15.18;81.04
56142;BME280;42018;48.588;10.836;2022-10-16T00:23:20;96829.50;;;15.08;81.79
56142;BME280;42018;48.588;10.836;2022-10-16T00:26:09;96834.06;;;15.07;81.67
56142;BME280;42018;48.588;10.836;2022-10-16T00:28:55;96846.13;;;15.05;81.60
56142;BME280;42018;48.588;10.836;2022-10-16T00:31:40;96845.25;;;15.09;81.38
56142;BME280;42018;48.588;10.836;2022-10-16T00:34:26;96851.41;;;15.24;80.26
56142;BME280;42018;48.588;10.836;2022-10-16T00:37:12;96849.22;;;15.26;80.02
56142;BME280;42018;48.588;10.836;2022-10-16T00:39:57;96850.84;;;15.27;80.03
56142;BME280;42018;48.588;10.836;2022-10-16T00:42:42;96848.38;;;15.30;79.60
56142;BME280;42018;48.588;10.836;2022-10-16T00:45:28;96850.47;;;15.33;79.29
56142;BME280;42018;48.588;10.836;2022-10-16T00:48:13;96837.91;;;15.34;79.13
56142;BME280;42018;48.588;10.836;2022-10-16T00:50:59;96834.03;;;15.40;78.93
56142;BME280;42018;48.588;10.836;2022-10-16T00:53:46;96842.88;;;15.41;78.99
56142;BME280;42018;48.588;10.836;2022-10-16T00:56:31;96841.25;;;15.40;78.74
56142;BME280;42018;48.588;10.836;2022-10-16T01:02:14;96848.28;;;15.36;77.94
56142;BME280;42018;48.588;10.836;2022-10-16T01:05:00;96841.94;;;15.31;78.38
56142;BME280;42018;48.588;10.836;2022-10-16T01:17:49;96836.66;;;15.13;78.72
56142;BME280;42018;48.588;10.836;2022-10-16T01:20:43;96840.22;;;15.22;78.42
56142;BME280;42018;48.588;10.836;2022-10-16T01:30:06;96840.31;;;15.17;78.21
56142;BME280;42018;48.588;10.836;2022-10-16T01:32:57;96840.66;;;15.29;77.20
56142;BME280;42018;48.588;10.836;2022-10-16T01:35:48;96844.38;;;15.14;77.75
56142;BME280;42018;48.588;10.836;2022-10-16T01:38:39;96839.13;;;15.09;77.12
56142;BME280;42018;48.588;10.836;2022-10-16T01:41:30;96841.78;;;15.09;77.30
56142;BME280;42018;48.588;10.836;2022-10-16T01:44:24;96841.94;;;14.99;77.84
56142;BME280;42018;48.588;10.836;2022-10-16T01:47:11;96847.06;;;14.95;78.16
56142;BME280;42018;48.588;10.836;2022-10-16T01:49:59;96839.19;;;15.04;77.23
56142;BME280;42018;48.588;10.836;2022-10-16T01:52:46;96844.25;;;15.05;77.35
56142;BME280;42018;48.588;10.836;2022-10-16T01:55:35;96843.38;;;15.10;76.69
56142;BME280;42018;48.588;10.836;2022-10-16T01:58:22;96833.59;;;14.87;77.32
56142;BME280;42018;48.588;10.836;2022-10-16T02:01:11;96831.31;;;14.80;78.12
56142;BME280;42018;48.588;10.836;2022-10-16T02:04:04;96830.56;;;14.74;78.68
56142;BME280;42018;48.588;10.836;2022-10-16T02:06:52;96835.34;;;14.77;78.33
56142;BME280;42018;48.588;10.836;2022-10-16T02:09:38;96831.13;;;14.90;78.02
56142;BME280;42018;48.588;10.836;2022-10-16T02:12:31;96819.38;;;14.72;78.23
56142;BME280;42018;48.588;10.836;2022-10-16T02:15:17;96829.91;;;14.82;77.68
56142;BME280;42018;48.588;10.836;2022-10-16T02:18:04;96839.94;;;14.72;77.85
56142;BME280;42018;48.588;10.836;2022-10-16T02:20:53;96841.13;;;14.66;77.98
56142;BME280;42018;48.588;10.836;2022-10-16T02:27:12;96842.84;;;14.56;77.03
56142;BME280;42018;48.588;10.836;2022-10-16T02:30:07;96853.22;;;14.77;77.03
56142;BME280;42018;48.588;10.836;2022-10-16T02:32:55;96852.13;;;14.78;76.89
56142;BME280;42018;48.588;10.836;2022-10-16T02:35:43;96846.22;;;14.81;76.15
56142;BME280;42018;48.588;10.836;2022-10-16T02:38:30;96848.16;;;14.75;77.08
56142;BME280;42018;48.588;10.836;2022-10-16T02:41:16;96870.88;;;14.73;76.93
56142;BME280;42018;48.588;10.836;2022-10-16T02:44:01;96864.50;;;14.69;77.33
56142;BME280;42018;48.588;10.836;2022-10-16T02:46:46;96861.78;;;14.74;77.42
56142;BME280;42018;48.588;10.836;2022-10-16T02:49:32;96867.25;;;14.82;77.25
56142;BME280;42018;48.588;10.836;2022-10-16T02:52:17;96866.31;;;14.92;76.37
56142;BME280;42018;48.588;10.836;2022-10-16T02:55:03;96864.97;;;14.95;76.50
56142;BME280;42018;48.588;10.836;2022-10-16T02:57:48;96871.00;;;15.00;76.05
56142;BME280;42018;48.588;10.836;2022-10-16T03:00:34;96863.34;;;14.94;76.10
56142;BME280;42018;48.588;10.836;2022-10-16T03:03:19;96863.00;;;14.81;76.83
56142;BME280;42018;48.588;10.836;2022-10-16T03:06:04;96865.00;;;14.90;76.87
56142;BME280;42018;48.588;10.836;2022-10-16T03:08:50;96871.75;;;14.87;76.46
56142;BME280;42018;48.588;10.836;2022-10-16T03:11:36;96878.72;;;14.83;77.14
56142;BME280;42018;48.588;10.836;2022-10-16T03:14:21;96894.22;;;14.81;77.16
56142;BME280;42018;48.588;10.836;2022-10-16T03:17:06;96877.13;;;14.82;76.92
56142;BME280;42018;48.588;10.836;2022-10-16T03:19:52;96876.78;;;14.89;76.43
56142;BME280;42018;48.588;10.836;2022-10-16T03:22:37;96884.56;;;14.85;76.75
56142;BME280;42018;48.588;10.836;2022-10-16T03:25:23;96873.59;;;14.68;77.28
56142;BME280;42018;48.588;10.836;2022-10-16T03:28:08;96868.28;;;14.44;78.72
56142;BME280;42018;48.588;10.836;2022-10-16T03:30:54;96864.94;;;14.57;78.36
56142;BME280;42018;48.588;10.836;2022-10-16T03:33:39;96857.38;;;14.64;78.10
56142;BME280;42018;48.588;10.836;2022-10-16T03:36:24;96863.25;;;14.66;78.14
56142;BME280;42018;48.588;10.836;2022-10-16T03:39:10;96862.72;;;14.64;77.50
56142;BME280;42018;48.588;10.836;2022-10-16T03:41:55;96869.97;;;14.58;78.08
56142;BME280;42018;48.588;10.836;2022-10-16T03:44:41;96875.53;;;14.62;77.55
56142;BME280;42018;48.588;10.836;2022-10-16T03:47:26;96866.69;;;14.67;77.38
56142;BME280;42018;48.588;10.836;2022-10-16T03:50:11;96870.88;;;14.73;77.13
56142;BME280;42018;48.588;10.836;2022-10-16T03:52:57;96876.34;;;14.63;77.65
56142;BME280;42018;48.588;10.836;2022-10-16T03:55:42;96888.16;;;14.56;77.83
56142;BME280;42018;48.588;10.836;2022-10-16T03:58:28;96887.38;;;14.56;78.07
56142;BME280;42018;48.588;10.836;2022-10-16T04:01:15;96871.63;;;14.54;78.48
56142;BME280;42018;48.588;10.836;2022-10-16T04:04:00;96884.34;;;14.63;77.83
56142;BME280;42018;48.588;10.836;2022-10-16T04:06:46;96889.75;;;14.57;78.01
56142;BME280;42018;48.588;10.836;2022-10-16T04:09:31;96872.09;;;14.80;77.20
56142;BME280;42018;48.588;10.836;2022-10-16T04:12:16;96870.13;;;14.48;78.35
56142;BME280;42018;48.588;10.836;2022-10-16T04:15:02;96875.56;;;14.38;79.05
56142;BME280;42018;48.588;10.836;2022-10-16T04:17:47;96867.78;;;14.42;78.75
56142;BME280;42018;48.588;10.836;2022-10-16T04:20:33;96874.59;;;14.53;78.43
56142;BME280;42018;48.588;10.836;2022-10-16T04:23:19;96866.88;;;14.51;78.57
56142;BME280;42018;48.588;10.836;2022-10-16T04:26:05;96869.84;;;14.50;78.53
56142;BME280;42018;48.588;10.836;2022-10-16T04:28:50;96874.09;;;14.51;78.34
56142;BME280;42018;48.588;10.836;2022-10-16T04:31:35;96879.03;;;14.38;79.00
56142;BME280;42018;48.588;10.836;2022-10-16T04:34:21;96871.75;;;14.44;78.85
56142;BME280;42018;48.588;10.836;2022-10-16T04:37:06;96884.41;;;14.57;78.26
56142;BME280;42018;48.588;10.836;2022-10-16T04:39:52;96871.81;;;14.63;77.79
56142;BME280;42018;48.588;10.836;2022-10-16T04:42:38;96877.19;;;14.58;78.04
56142;BME280;42018;48.588;10.836;2022-10-16T04:45:24;96889.50;;;14.54;78.15
56142;BME280;42018;48.588;10.836;2022-10-16T04:48:09;96882.25;;;14.59;77.66
56142;BME280;42018;48.588;10.836;2022-10-16T04:50:55;96880.66;;;14.58;78.00
56142;BME280;42018;48.588;10.836;2022-10-16T04:53:40;96877.63;;;14.65;77.58
56142;BME280;42018;48.588;10.836;2022-10-16T04:56:26;96880.38;;;14.60;77.97
56142;BME280;42018;48.588;10.836;2022-10-16T04:59:11;96887.06;;;14.57;78.31
56142;BME280;42018;48.588;10.836;2022-10-16T05:01:56;96884.94;;;14.59;77.47
56142;BME280;42018;48.588;10.836;2022-10-16T05:04:42;96887.81;;;14.63;77.32
56142;BME280;42018;48.588;10.836;2022-10-16T05:07:27;96890.03;;;14.56;77.36
56142;BME280;42018;48.588;10.836;2022-10-16T05:10:13;96880.38;;;14.60;77.20
56142;BME280;42018;48.588;10.836;2022-10-16T05:12:58;96892.69;;;14.56;77.13
56142;BME280;42018;48.588;10.836;2022-10-16T05:15:47;96893.72;;;14.60;77.04
56142;BME280;42018;48.588;10.836;2022-10-16T05:18:33;96904.50;;;14.50;77.08
56142;BME280;42018;48.588;10.836;2022-10-16T05:21:19;96895.06;;;14.57;76.95
56142;BME280;42018;48.588;10.836;2022-10-16T05:24:04;96895.28;;;14.61;76.47
56142;BME280;42018;48.588;10.836;2022-10-16T05:26:50;96908.56;;;14.66;76.06
56142;BME280;42018;48.588;10.836;2022-10-16T05:29:35;96898.63;;;14.72;75.82
56142;BME280;42018;48.588;10.836;2022-10-16T05:32:21;96903.59;;;14.59;76.39
56142;BME280;42018;48.588;10.836;2022-10-16T05:35:06;96915.38;;;14.53;76.61
56142;BME280;42018;48.588;10.836;2022-10-16T05:37:52;96908.78;;;14.46;76.96
56142;BME280;42018;48.588;10.836;2022-10-16T05:40:37;96895.03;;;14.38;77.44
56142;BME280;42018;48.588;10.836;2022-10-16T05:43:23;96902.84;;;14.30;77.55
56142;BME280;42018;48.588;10.836;2022-10-16T05:46:08;96909.22;;;14.34;77.84
56142;BME280;42018;48.588;10.836;2022-10-16T05:48:54;96919.56;;;14.35;77.37
56142;BME280;42018;48.588;10.836;2022-10-16T05:51:39;96927.28;;;14.37;77.72
56142;BME280;42018;48.588;10.836;2022-10-16T05:54:25;96930.69;;;14.43;77.45
56142;BME280;42018;48.588;10.836;2022-10-16T05:57:10;96925.84;;;14.50;76.87
56142;BME280;42018;48.588;10.836;2022-10-16T05:59:55;96931.69;;;14.47;77.00
56142;BME280;42018;48.588;10.836;2022-10-16T06:02:41;96935.16;;;14.52;76.66
56142;BME280;42018;48.588;10.836;2022-10-16T06:05:26;96932.47;;;14.52;76.47
56142;BME280;42018;48.588;10.836;2022-10-16T06:08:11;96932.69;;;14.56;76.25
56142;BME280;42018;48.588;10.836;2022-10-16T06:11:01;96933.84;;;14.50;76.16
56142;BME280;42018;48.588;10.836;2022-10-16T06:13:51;96936.44;;;14.31;77.63
56142;BME280;42018;48.588;10.836;2022-10-16T06:16:37;96930.31;;;14.30;78.05
56142;BME280;42018;48.588;10.836;2022-10-16T06:19:23;96928.22;;;14.27;77.95
56142;BME280;42018;48.588;10.836;2022-10-16T06:22:08;96938.19;;;14.17;78.63
56142;BME280;42018;48.588;10.836;2022-10-16T06:24:53;96935.53;;;14.17;78.59
56142;BME280;42018;48.588;10.836;2022-10-16T06:27:40;96948.50;;;14.23;78.83
56142;BME280;42018;48.588;10.836;2022-10-16T06:30:25;96962.09;;;14.22;78.99
56142;BME280;42018;48.588;10.836;2022-10-16T06:33:11;96955.91;;;14.26;79.14
56142;BME280;42018;48.588;10.836;2022-10-16T06:36:05;96951.91;;;14.29;78.42
56142;BME280;42018;48.588;10.836;2022-10-16T06:38:51;96965.22;;;14.29;78.94
56142;BME280;42018;48.588;10.836;2022-10-16T06:41:36;96961.09;;;14.42;78.12
56142;BME280;42018;48.588;10.836;2022-10-16T06:44:22;96962.00;;;14.32;78.75
56142;BME280;42018;48.588;10.836;2022-10-16T06:47:07;96963.81;;;14.36;78.69
56142;BME280;42018;48.588;10.836;2022-10-16T06:49:52;96976.53;;;14.45;78.54
56142;BME280;42018;48.588;10.836;2022-10-16T06:52:38;96978.59;;;14.48;78.70
56142;BME280;42018;48.588;10.836;2022-10-16T06:55:23;96982.03;;;14.53;78.80
56142;BME280;42018;48.588;10.836;2022-10-16T06:58:09;96980.13;;;14.59;78.41
56142;BME280;42018;48.588;10.836;2022-10-16T07:00:55;96982.31;;;14.76;78.48
56142;BME280;42018;48.588;10.836;2022-10-16T07:03:43;96981.72;;;14.79;79.31
56142;BME280;42018;48.588;10.836;2022-10-16T07:06:31;96984.13;;;14.80;79.94
56142;BME280;42018;48.588;10.836;2022-10-16T07:09:17;96997.25;;;14.77;80.95
56142;BME280;42018;48.588;10.836;2022-10-16T07:12:03;97011.53;;;14.86;80.29
56142;BME280;42018;48.588;10.836;2022-10-16T07:14:48;97017.53;;;14.97;80.22
56142;BME280;42018;48.588;10.836;2022-10-16T07:17:37;97010.97;;;15.08;78.94
56142;BME280;42018;48.588;10.836;2022-10-16T07:20:22;97017.91;;;15.09;79.19
56142;BME280;42018;48.588;10.836;2022-10-16T07:23:07;97016.75;;;15.15;78.03
56142;BME280;42018;48.588;10.836;2022-10-16T07:25:54;97010.78;;;15.23;78.27
56142;BME280;42018;48.588;10.836;2022-10-16T07:28:42;97023.56;;;15.26;78.42
56142;BME280;42018;48.588;10.836;2022-10-16T07:31:28;97018.28;;;15.21;78.94
56142;BME280;42018;48.588;10.836;2022-10-16T07:34:15;97027.88;;;15.22;78.47
56142;BME280;42018;48.588;10.836;2022-10-16T07:37:01;97034.06;;;15.37;78.25
56142;BME280;42018;48.588;10.836;2022-10-16T07:39:46;97040.44;;;15.60;77.64
56142;BME280;42018;48.588;10.836;2022-10-16T07:42:31;97046.47;;;15.65;77.28
56142;BME280;42018;48.588;10.836;2022-10-16T07:45:17;97042.47;;;15.68;77.28
56142;BME280;42018;48.588;10.836;2022-10-16T07:48:02;97045.56;;;15.75;77.23
56142;BME280;42018;48.588;10.836;2022-10-16T07:50:48;97051.84;;;15.84;77.47
56142;BME280;42018;48.588;10.836;2022-10-16T07:53:33;97059.56;;;15.86;77.41
56142;BME280;42018;48.588;10.836;2022-10-16T07:56:19;97060.25;;;16.10;77.14
56142;BME280;42018;48.588;10.836;2022-10-16T07:59:05;97055.25;;;16.22;77.10
56142;BME280;42018;48.588;10.836;2022-10-16T08:01:50;97045.72;;;16.16;76.74
56142;BME280;42018;48.588;10.836;2022-10-16T08:04:36;97041.38;;;16.20;75.74
56142;BME280;42018;48.588;10.836;2022-10-16T08:07:21;97050.19;;;16.21;75.34
56142;BME280;42018;48.588;10.836;2022-10-16T08:10:10;97044.84;;;16.35;74.96
56142;BME280;42018;48.588;10.836;2022-10-16T08:13:00;97044.16;;;16.43;75.14
56142;BME280;42018;48.588;10.836;2022-10-16T08:15:46;97053.41;;;16.64;74.64
56142;BME280;42018;48.588;10.836;2022-10-16T08:18:32;97048.44;;;16.58;73.65
56142;BME280;42018;48.588;10.836;2022-10-16T08:21:20;97045.09;;;16.66;73.35
56142;BME280;42018;48.588;10.836;2022-10-16T08:24:05;97044.91;;;16.62;73.27
56142;BME280;42018;48.588;10.836;2022-10-16T08:26:53;97051.72;;;16.68;73.33
56142;BME280;42018;48.588;10.836;2022-10-16T08:29:39;97051.75;;;16.82;72.97
56142;BME280;42018;48.588;10.836;2022-10-16T08:32:25;97057.69;;;16.93;73.50
56142;BME280;42018;48.588;10.836;2022-10-16T08:35:11;97053.94;;;16.94;73.06
56142;BME280;42018;48.588;10.836;2022-10-16T08:37:57;97056.72;;;17.03;72.49
56142;BME280;42018;48.588;10.836;2022-10-16T08:40:42;97061.25;;;17.16;71.92
56142;BME280;42018;48.588;10.836;2022-10-16T08:49:41;97084.25;;;17.31;72.33
56142;BME280;42018;48.588;10.836;2022-10-16T08:52:32;97083.66;;;17.34;72.64
56142;BME280;42018;48.588;10.836;2022-10-16T08:55:32;97093.66;;;17.42;71.78
56142;BME280;42018;48.588;10.836;2022-10-16T08:58:29;97093.66;;;17.42;72.12
56142;BME280;42018;48.588;10.836;2022-10-16T09:01:17;97097.09;;;17.56;71.94
56142;BME280;42018;48.588;10.836;2022-10-16T09:04:39;97092.16;;;17.50;71.20
56142;BME280;42018;48.588;10.836;2022-10-16T09:07:59;97102.78;;;17.41;71.43
56142;BME280;42018;48.588;10.836;2022-10-16T09:13:48;97112.03;;;17.71;71.16
56142;BME280;42018;48.588;10.836;2022-10-16T09:16:44;97116.31;;;17.72;71.57
56142;BME280;42018;48.588;10.836;2022-10-16T09:19:38;97115.03;;;17.83;71.36
56142;BME280;42018;48.588;10.836;2022-10-16T09:22:27;97109.72;;;17.92;71.53
56142;BME280;42018;48.588;10.836;2022-10-16T09:25:17;97105.25;;;18.01;71.11
56142;BME280;42018;48.588;10.836;2022-10-16T09:28:03;97100.25;;;18.08;71.17
56142;BME280;42018;48.588;10.836;2022-10-16T09:30:48;97102.50;;;18.15;70.73
56142;BME280;42018;48.588;10.836;2022-10-16T09:33:38;97108.94;;;18.14;70.43
56142;BME280;42018;48.588;10.836;2022-10-16T09:36:27;97114.94;;;18.11;70.13
56142;BME280;42018;48.588;10.836;2022-10-16T09:39:13;97107.16;;;18.32;70.34
56142;BME280;42018;48.588;10.836;2022-10-16T09:42:00;97103.06;;;18.26;70.48
56142;BME280;42018;48.588;10.836;2022-10-16T09:44:50;97104.25;;;18.19;70.90
56142;BME280;42018;48.588;10.836;2022-10-16T09:47:39;97101.25;;;18.21;70.29
56142;BME280;42018;48.588;10.836;2022-10-16T09:50:28;97100.34;;;18.48;70.48
56142;BME280;42018;48.588;10.836;2022-10-16T09:53:14;97112.28;;;18.64;69.19
56142;BME280;42018;48.588;10.836;2022-10-16T09:56:00;97116.47;;;18.79;68.43
56142;BME280;42018;48.588;10.836;2022-10-16T09:58:54;97118.38;;;19.19;67.42
56142;BME280;42018;48.588;10.836;2022-10-16T10:01:50;97118.75;;;19.43;66.66
56142;BME280;42018;48.588;10.836;2022-10-16T10:04:43;97131.41;;;19.43;66.38
56142;BME280;42018;48.588;10.836;2022-10-16T10:07:33;97122.34;;;19.38;65.68
56142;BME280;42018;48.588;10.836;2022-10-16T10:10:23;97124.13;;;19.43;65.39
56142;BME280;42018;48.588;10.836;2022-10-16T10:13:19;97135.41;;;19.63;66.30
56142;BME280;42018;48.588;10.836;2022-10-16T10:16:05;97126.72;;;19.66;66.08
56142;BME280;42018;48.588;10.836;2022-10-16T10:18:58;97126.25;;;19.72;64.86
56142;BME280;42018;48.588;10.836;2022-10-16T10:21:44;97129.91;;;19.68;65.20
56142;BME280;42018;48.588;10.836;2022-10-16T10:24:30;97130.06;;;19.80;65.51
56142;BME280;42018;48.588;10.836;2022-10-16T10:27:17;97134.00;;;19.91;65.42
56142;BME280;42018;48.588;10.836;2022-10-16T10:30:24;97137.50;;;20.00;66.08
56142;BME280;42018;48.588;10.836;2022-10-16T10:36:29;97126.72;;;20.26;65.55
56142;BME280;42018;48.588;10.836;2022-10-16T10:39:24;97135.59;;;20.36;64.79
56142;BME280;42018;48.588;10.836;2022-10-16T10:45:39;97131.50;;;20.03;61.53
56142;BME280;42018;48.588;10.836;2022-10-16T10:48:52;97128.94;;;19.98;61.76
56142;BME280;42018;48.588;10.836;2022-10-16T11:04:52;97100.56;;;20.44;59.89
56142;BME280;42018;48.588;10.836;2022-10-16T11:07:49;97101.25;;;20.32;60.54
56142;BME280;42018;48.588;10.836;2022-10-16T11:10:57;97108.50;;;20.58;60.94
56142;BME280;42018;48.588;10.836;2022-10-16T11:17:12;97114.28;;;20.86;60.14
56142;BME280;42018;48.588;10.836;2022-10-16T11:20:28;97118.59;;;21.17;59.23
56142;BME280;42018;48.588;10.836;2022-10-16T11:23:25;97106.50;;;21.23;58.80
56142;BME280;42018;48.588;10.836;2022-10-16T11:26:19;97113.94;;;21.35;58.83
56142;BME280;42018;48.588;10.836;2022-10-16T11:29:14;97112.09;;;21.47;58.81
56142;BME280;42018;48.588;10.836;2022-10-16T11:32:06;97112.72;;;21.53;58.51
56142;BME280;42018;48.588;10.836;2022-10-16T11:35:23;97105.56;;;21.48;58.01
56142;BME280;42018;48.588;10.836;2022-10-16T11:38:17;97112.75;;;21.44;57.88
56142;BME280;42018;48.588;10.836;2022-10-16T11:47:19;97098.09;;;20.86;57.55
56142;BME280;42018;48.588;10.836;2022-10-16T11:55:56;97094.50;;;21.12;58.67
56142;BME280;42018;48.588;10.836;2022-10-16T11:59:34;97091.31;;;21.18;57.55
56142;BME280;42018;48.588;10.836;2022-10-16T12:08:42;97088.88;;;21.55;57.66
56142;BME280;42018;48.588;10.836;2022-10-16T12:17:52;97088.63;;;21.69;58.18
56142;BME280;42018;48.588;10.836;2022-10-16T12:20:32;97094.56;;;21.83;58.11
56142;BME280;42018;48.588;10.836;2022-10-16T12:23:20;97095.41;;;21.96;57.62
56142;BME280;42018;48.588;10.836;2022-10-16T12:26:07;97083.44;;;22.06;57.58
56142;BME280;42018;48.588;10.836;2022-10-16T12:28:54;97097.09;;;22.00;57.79
56142;BME280;42018;48.588;10.836;2022-10-16T12:31:45;97096.78;;;22.02;57.49
56142;BME280;42018;48.588;10.836;2022-10-16T12:34:43;97098.03;;;22.26;57.63
56142;BME280;42018;48.588;10.836;2022-10-16T12:37:35;97102.22;;;22.35;57.37
56142;BME280;42018;48.588;10.836;2022-10-16T12:40:26;97101.94;;;22.49;56.47
56142;BME280;42018;48.588;10.836;2022-10-16T12:51:58;97103.69;;;22.78;54.51
56142;BME280;42018;48.588;10.836;2022-10-16T12:54:44;97105.97;;;23.01;54.06
56142;BME280;42018;48.588;10.836;2022-10-16T13:00:28;97100.13;;;23.11;52.03
56142;BME280;42018;48.588;10.836;2022-10-16T13:03:40;97097.09;;;23.12;51.20
56142;BME280;42018;48.588;10.836;2022-10-16T13:06:34;97108.69;;;23.37;52.65
56142;BME280;42018;48.588;10.836;2022-10-16T13:09:42;97095.63;;;23.27;51.51
56142;BME280;42018;48.588;10.836;2022-10-16T13:18:16;97111.16;;;22.93;53.90
56142;BME280;42018;48.588;10.836;2022-10-16T13:21:30;97105.38;;;22.83;53.41
56142;BME280;42018;48.588;10.836;2022-10-16T13:28:05;97114.25;;;22.71;53.08
56142;BME280;42018;48.588;10.836;2022-10-16T13:30:56;97119.97;;;22.69;53.57
56142;BME280;42018;48.588;10.836;2022-10-16T13:33:46;97116.97;;;22.83;52.84
56142;BME280;42018;48.588;10.836;2022-10-16T13:36:44;97115.50;;;22.86;52.69
56142;BME280;42018;48.588;10.836;2022-10-16T13:39:30;97109.59;;;22.92;53.08
56142;BME280;42018;48.588;10.836;2022-10-16T13:42:27;97116.63;;;22.85;54.03
56142;BME280;42018;48.588;10.836;2022-10-16T13:45:24;97113.28;;;23.00;53.33
56142;BME280;42018;48.588;10.836;2022-10-16T13:48:10;97110.25;;;23.14;53.78
56142;BME280;42018;48.588;10.836;2022-10-16T13:53:52;97117.03;;;23.45;52.45
56142;BME280;42018;48.588;10.836;2022-10-16T13:56:39;97113.72;;;23.51;52.37
56142;BME280;42018;48.588;10.836;2022-10-16T13:59:36;97107.06;;;23.61;51.61
56142;BME280;42018;48.588;10.836;2022-10-16T14:02:28;97113.38;;;23.65;50.85
56142;BME280;42018;48.588;10.836;2022-10-16T14:05:15;97112.03;;;23.59;50.95
56142;BME280;42018;48.588;10.836;2022-10-16T14:08:00;97130.28;;;23.62;51.02
56142;BME280;42018;48.588;10.836;2022-10-16T14:10:51;97123.78;;;23.38;50.05
56142;BME280;42018;48.588;10.836;2022-10-16T14:13:39;97130.22;;;23.34;50.32
56142;BME280;42018;48.588;10.836;2022-10-16T14:16:32;97131.91;;;23.38;51.78
56142;BME280;42018;48.588;10.836;2022-10-16T14:19:25;97131.69;;;23.31;51.64
56142;BME280;42018;48.588;10.836;2022-10-16T14:30:53;97130.78;;;23.27;49.92
56142;BME280;42018;48.588;10.836;2022-10-16T14:33:39;97134.81;;;23.21;50.93
56142;BME280;42018;48.588;10.836;2022-10-16T14:36:26;97132.59;;;23.23;52.38
56142;BME280;42018;48.588;10.836;2022-10-16T14:39:20;97132.25;;;22.79;54.74
56142;BME280;42018;48.588;10.836;2022-10-16T14:42:20;97126.06;;;22.66;55.52
56142;BME280;42018;48.588;10.836;2022-10-16T14:45:09;97135.06;;;22.70;55.42
56142;BME280;42018;48.588;10.836;2022-10-16T14:48:02;97132.06;;;22.51;56.16
56142;BME280;42018;48.588;10.836;2022-10-16T14:50:48;97131.28;;;22.51;56.59
56142;BME280;42018;48.588;10.836;2022-10-16T14:53:34;97132.31;;;22.46;56.84
56142;BME280;42018;48.588;10.836;2022-10-16T14:56:22;97134.66;;;22.47;56.96
56142;BME280;42018;48.588;10.836;2022-10-16T14:59:14;97132.81;;;22.27;57.51
56142;BME280;42018;48.588;10.836;2022-10-16T15:02:15;97131.00;;;22.31;57.79
56142;BME280;42018;48.588;10.836;2022-10-16T15:05:22;97126.84;;;22.34;58.59
56142;BME280;42018;48.588;10.836;2022-10-16T15:08:09;97132.63;;;22.44;58.13
56142;BME280;42018;48.588;10.836;2022-10-16T15:10:55;97121.81;;;22.44;58.00
56142;BME280;42018;48.588;10.836;2022-10-16T15:13:40;97132.38;;;22.37;58.02
56142;BME280;42018;48.588;10.836;2022-10-16T15:16:26;97124.97;;;22.34;57.51
56142;BME280;42018;48.588;10.836;2022-10-16T15:19:11;97132.81;;;22.27;57.89
56142;BME280;42018;48.588;10.836;2022-10-16T15:21:57;97134.34;;;22.07;58.77
56142;BME280;42018;48.588;10.836;2022-10-16T15:24:43;97135.34;;;22.03;59.89
56142;BME280;42018;48.588;10.836;2022-10-16T15:27:28;97148.13;;;21.93;60.49
56142;BME280;42018;48.588;10.836;2022-10-16T15:30:13;97140.88;;;21.85;61.26
56142;BME280;42018;48.588;10.836;2022-10-16T15:32:59;97141.19;;;21.84;61.29
56142;BME280;42018;48.588;10.836;2022-10-16T15:35:48;97142.41;;;21.74;62.01
56142;BME280;42018;48.588;10.836;2022-10-16T15:38:34;97143.81;;;21.71;62.04
56142;BME280;42018;48.588;10.836;2022-10-16T15:41:20;97147.66;;;21.70;62.10
56142;BME280;42018;48.588;10.836;2022-10-16T15:44:06;97151.00;;;21.67;62.12
56142;BME280;42018;48.588;10.836;2022-10-16T15:46:54;97144.34;;;21.65;62.13
56142;BME280;42018;48.588;10.836;2022-10-16T15:49:39;97155.13;;;21.65;62.37
56142;BME280;42018;48.588;10.836;2022-10-16T15:52:25;97141.38;;;21.58;62.39
56142;BME280;42018;48.588;10.836;2022-10-16T15:55:12;97148.06;;;21.51;62.11
56142;BME280;42018;48.588;10.836;2022-10-16T15:57:58;97151.13;;;21.41;62.53
56142;BME280;42018;48.588;10.836;2022-10-16T16:00:43;97154.97;;;21.32;63.24
56142;BME280;42018;48.588;10.836;2022-10-16T16:03:29;97162.28;;;21.22;63.53
56142;BME280;42018;48.588;10.836;2022-10-16T16:06:14;97154.56;;;21.12;64.44
56142;BME280;42018;48.588;10.836;2022-10-16T16:09:00;97157.44;;;21.07;64.96
56142;BME280;42018;48.588;10.836;2022-10-16T16:11:45;97159.53;;;21.01;64.90
56142;BME280;42018;48.588;10.836;2022-10-16T16:14:31;97159.06;;;20.99;65.00
56142;BME280;42018;48.588;10.836;2022-10-16T16:17:16;97151.63;;;20.96;65.22
56142;BME280;42018;48.588;10.836;2022-10-16T16:20:03;97158.44;;;20.94;65.36
56142;BME280;42018;48.588;10.836;2022-10-16T16:22:49;97154.81;;;20.81;66.30
56142;BME280;42018;48.588;10.836;2022-10-16T16:25:35;97158.19;;;20.78;66.27
56142;BME280;42018;48.588;10.836;2022-10-16T16:28:20;97158.19;;;20.69;66.75
56142;BME280;42018;48.588;10.836;2022-10-16T16:31:06;97161.53;;;20.58;67.94
56142;BME280;42018;48.588;10.836;2022-10-16T16:33:51;97157.88;;;20.45;68.56